KSTP/STP METAR and TAF weather

Enter ICAO airport designator
Station Type Date Time Source
KSTP METAR 2019/05/25 08:53 UTC NOAA

KSTP 250853Z AUTO 26010KT 10SM CLR 18/12 A2971 RMK AO2 SLP058 T01780122 55003


Station Type Date Time Source
KSTP Decoded METAR 2019/05/25 08:53 UTC NOAA

DOWNTOWN HOLMAN FIELD, MN, United States (KSTP) 44-56N 093-03W 219M
May 25, 2019 - 04:53 AM EDT / 2019.05.25 0853 UTC
Wind: from the W (260 degrees) at 12 MPH (10 KT):0
Visibility: 10 mile(s):0
Sky conditions: clear
Temperature: 64.0 F (17.8 C)
Dew Point: 54.0 F (12.2 C)
Relative Humidity: 69%
Pressure (altimeter): 29.71 in. Hg (1006 hPa)
Pressure tendency: 0.01 inches (0.3 hPa) lower than three hours ago
ob: KSTP 250853Z AUTO 26010KT 10SM CLR 18/12 A2971 RMK AO2 SLP058 T01780122 55003
cycle: 9

Station Type Date Time Source
KSTP TAF 2018/02/05 20:57 UTC NOAA

TAF
AMD KSTP 051957Z 0520/0618 25007KT P6SM VCSH BKN020 OVC050
TEMPO 0520/0522 SCT020
FM052200 26006KT P6SM FEW020 BKN110
FM060100 31006KT P6SM FEW100
AMD NOT SKED

Example: see airport list